sensor_id;sensor_type;location;lat;lon;timestamp;pressure;altitude;pressure_sealevel;temperature;humidity
30724;BME280;17473;52.286;20.930;2023-05-10T00:01:08;100945.19;;;9.90;43.36
30724;BME280;17473;52.286;20.930;2023-05-10T00:03:35;100951.44;;;10.11;43.08
30724;BME280;17473;52.286;20.930;2023-05-10T00:06:02;100938.91;;;9.87;43.46
30724;BME280;17473;52.286;20.930;2023-05-10T00:08:30;100931.00;;;10.07;43.24
30724;BME280;17473;52.286;20.930;2023-05-10T00:10:57;100929.28;;;9.88;43.56
30724;BME280;17473;52.286;20.930;2023-05-10T00:13:24;100930.31;;;9.72;43.69
30724;BME280;17473;52.286;20.930;2023-05-10T00:15:51;100933.53;;;9.84;43.70
30724;BME280;17473;52.286;20.930;2023-05-10T00:18:18;100928.47;;;9.89;43.43
30724;BME280;17473;52.286;20.930;2023-05-10T00:20:45;100925.63;;;9.84;43.78
30724;BME280;17473;52.286;20.930;2023-05-10T00:23:15;100925.53;;;9.83;43.80
30724;BME280;17473;52.286;20.930;2023-05-10T00:25:42;100925.03;;;9.72;43.83
30724;BME280;17473;52.286;20.930;2023-05-10T00:28:09;100922.81;;;9.81;43.64
30724;BME280;17473;52.286;20.930;2023-05-10T00:30:37;100921.81;;;9.60;43.76
30724;BME280;17473;52.286;20.930;2023-05-10T00:33:04;100919.00;;;9.75;43.75
30724;BME280;17473;52.286;20.930;2023-05-10T00:35:31;100919.78;;;9.72;43.94
30724;BME280;17473;52.286;20.930;2023-05-10T00:37:58;100924.34;;;9.57;44.01
30724;BME280;17473;52.286;20.930;2023-05-10T00:40:25;100915.22;;;9.68;43.85
30724;BME280;17473;52.286;20.930;2023-05-10T00:42:52;100911.94;;;9.54;43.87
30724;BME280;17473;52.286;20.930;2023-05-10T00:45:19;100914.28;;;9.67;43.63
30724;BME280;17473;52.286;20.930;2023-05-10T00:47:46;100910.69;;;9.46;43.99
30724;BME280;17473;52.286;20.930;2023-05-10T00:50:14;100908.22;;;9.50;44.05
30724;BME280;17473;52.286;20.930;2023-05-10T00:52:43;100912.97;;;9.58;43.88
30724;BME280;17473;52.286;20.930;2023-05-10T00:55:11;100913.03;;;9.59;43.56
30724;BME280;17473;52.286;20.930;2023-05-10T00:57:39;100910.19;;;9.54;43.73
30724;BME280;17473;52.286;20.930;2023-05-10T01:00:07;100912.53;;;9.48;43.60
30724;BME280;17473;52.286;20.930;2023-05-10T01:02:34;100909.34;;;9.55;43.26
30724;BME280;17473;52.286;20.930;2023-05-10T01:05:03;100909.34;;;9.55;43.15
30724;BME280;17473;52.286;20.930;2023-05-10T01:07:30;100899.59;;;9.35;43.59
30724;BME280;17473;52.286;20.930;2023-05-10T01:09:57;100899.31;;;9.29;43.84
30724;BME280;17473;52.286;20.930;2023-05-10T01:12:25;100900.44;;;9.34;43.47
30724;BME280;17473;52.286;20.930;2023-05-10T01:14:52;100902.34;;;9.56;42.93
30724;BME280;17473;52.286;20.930;2023-05-10T01:17:21;100895.38;;;9.38;43.25
30724;BME280;17473;52.286;20.930;2023-05-10T01:19:49;100897.25;;;9.21;43.80
30724;BME280;17473;52.286;20.930;2023-05-10T01:22:40;100894.72;;;9.24;43.44
30724;BME280;17473;52.286;20.930;2023-05-10T01:28:53;100898.88;;;9.19;43.62
30724;BME280;17473;52.286;20.930;2023-05-10T01:34:54;100896.03;;;9.15;43.85
30724;BME280;17473;52.286;20.930;2023-05-10T01:37:50;100895.53;;;9.04;44.02
30724;BME280;17473;52.286;20.930;2023-05-10T01:40:46;100893.06;;;9.27;43.48
30724;BME280;17473;52.286;20.930;2023-05-10T01:43:46;100885.34;;;9.12;43.64
30724;BME280;17473;52.286;20.930;2023-05-10T01:46:24;100886.47;;;9.17;43.49
30724;BME280;17473;52.286;20.930;2023-05-10T01:48:56;100889.94;;;9.16;43.58
30724;BME280;17473;52.286;20.930;2023-05-10T01:51:29;100886.53;;;9.18;43.16
30724;BME280;17473;52.286;20.930;2023-05-10T01:54:02;100886.56;;;9.00;43.51
30724;BME280;17473;52.286;20.930;2023-05-10T01:56:33;100883.78;;;8.97;44.03
30724;BME280;17473;52.286;20.930;2023-05-10T01:59:08;100887.03;;;8.91;44.00
30724;BME280;17473;52.286;20.930;2023-05-10T02:01:38;100886.16;;;9.11;43.67
30724;BME280;17473;52.286;20.930;2023-05-10T02:04:08;100882.69;;;9.12;43.53
30724;BME280;17473;52.286;20.930;2023-05-10T02:06:38;100878.66;;;8.82;44.14
30724;BME280;17473;52.286;20.930;2023-05-10T02:09:07;100873.78;;;8.90;44.21
30724;BME280;17473;52.286;20.930;2023-05-10T02:11:35;100878.28;;;8.92;43.97
30724;BME280;17473;52.286;20.930;2023-05-10T02:14:07;100872.88;;;8.89;43.97
30724;BME280;17473;52.286;20.930;2023-05-10T02:16:36;100876.28;;;8.69;44.16
30724;BME280;17473;52.286;20.930;2023-05-10T02:19:05;100875.66;;;8.92;44.16
30724;BME280;17473;52.286;20.930;2023-05-10T02:21:36;100875.38;;;8.86;44.33
30724;BME280;17473;52.286;20.930;2023-05-10T02:24:05;100863.25;;;8.72;44.50
30724;BME280;17473;52.286;20.930;2023-05-10T02:26:34;100866.94;;;8.93;44.18
30724;BME280;17473;52.286;20.930;2023-05-10T02:29:03;100859.41;;;8.83;44.62
30724;BME280;17473;52.286;20.930;2023-05-10T02:31:33;100873.25;;;8.79;44.79
30724;BME280;17473;52.286;20.930;2023-05-10T02:34:03;100866.19;;;8.78;44.67
30724;BME280;17473;52.286;20.930;2023-05-10T02:36:31;100861.88;;;8.80;44.45
30724;BME280;17473;52.286;20.930;2023-05-10T02:39:00;100876.19;;;8.67;45.38
30724;BME280;17473;52.286;20.930;2023-05-10T02:41:31;100874.09;;;8.60;45.57
30724;BME280;17473;52.286;20.930;2023-05-10T02:44:01;100869.50;;;8.56;45.48
30724;BME280;17473;52.286;20.930;2023-05-10T02:46:30;100878.13;;;8.53;45.91
30724;BME280;17473;52.286;20.930;2023-05-10T02:48:58;100880.28;;;8.60;45.61
30724;BME280;17473;52.286;20.930;2023-05-10T02:51:30;100876.56;;;8.57;45.77
30724;BME280;17473;52.286;20.930;2023-05-10T02:54:09;100878.69;;;8.64;45.87
30724;BME280;17473;52.286;20.930;2023-05-10T02:56:42;100877.84;;;8.30;46.59
30724;BME280;17473;52.286;20.930;2023-05-10T02:59:12;100874.06;;;8.42;46.48
30724;BME280;17473;52.286;20.930;2023-05-10T03:01:39;100875.47;;;8.35;46.65
30724;BME280;17473;52.286;20.930;2023-05-10T03:04:06;100875.41;;;8.34;46.77
30724;BME280;17473;52.286;20.930;2023-05-10T03:06:33;100878.22;;;8.38;46.66
30724;BME280;17473;52.286;20.930;2023-05-10T03:09:02;100884.19;;;8.34;46.86
30724;BME280;17473;52.286;20.930;2023-05-10T03:11:55;100881.94;;;8.42;47.13
30724;BME280;17473;52.286;20.930;2023-05-10T03:15:00;100870.69;;;8.63;46.36
30724;BME280;17473;52.286;20.930;2023-05-10T03:20:47;100881.31;;;8.64;46.81
30724;BME280;17473;52.286;20.930;2023-05-10T03:25:47;100875.28;;;9.60;44.93
30724;BME280;17473;52.286;20.930;2023-05-10T03:28:18;100871.84;;;10.22;43.55
30724;BME280;17473;52.286;20.930;2023-05-10T03:30:45;100869.53;;;10.93;42.13
30724;BME280;17473;52.286;20.930;2023-05-10T03:33:13;100869.31;;;11.81;40.33
30724;BME280;17473;52.286;20.930;2023-05-10T03:35:40;100874.84;;;12.37;38.59
30724;BME280;17473;52.286;20.930;2023-05-10T03:38:07;100876.19;;;12.77;38.24
30724;BME280;17473;52.286;20.930;2023-05-10T03:40:34;100872.28;;;13.51;36.66
30724;BME280;17473;52.286;20.930;2023-05-10T03:43:01;100868.03;;;14.22;35.48
30724;BME280;17473;52.286;20.930;2023-05-10T03:45:29;100853.38;;;14.70;34.58
30724;BME280;17473;52.286;20.930;2023-05-10T03:47:58;100856.81;;;15.44;33.52
30724;BME280;17473;52.286;20.930;2023-05-10T03:50:25;100852.53;;;15.95;32.71
30724;BME280;17473;52.286;20.930;2023-05-10T03:52:53;100850.28;;;16.69;31.37
30724;BME280;17473;52.286;20.930;2023-05-10T03:55:20;100849.72;;;17.53;30.17
30724;BME280;17473;52.286;20.930;2023-05-10T03:57:49;100853.44;;;17.66;29.77
30724;BME280;17473;52.286;20.930;2023-05-10T04:00:20;100851.44;;;18.28;29.34
30724;BME280;17473;52.286;20.930;2023-05-10T04:02:47;100853.59;;;18.71;28.54
30724;BME280;17473;52.286;20.930;2023-05-10T04:05:15;100852.41;;;19.69;27.20
30724;BME280;17473;52.286;20.930;2023-05-10T04:07:42;100850.75;;;20.13;26.68
30724;BME280;17473;52.286;20.930;2023-05-10T04:10:11;100861.28;;;21.79;24.53
30724;BME280;17473;52.286;20.930;2023-05-10T04:12:38;100857.84;;;21.44;24.85
30724;BME280;17473;52.286;20.930;2023-05-10T04:15:06;100855.75;;;23.17;23.20
30724;BME280;17473;52.286;20.930;2023-05-10T04:17:33;100853.16;;;24.47;21.50
30724;BME280;17473;52.286;20.930;2023-05-10T04:20:00;100854.75;;;25.10;20.97
30724;BME280;17473;52.286;20.930;2023-05-10T04:22:27;100857.88;;;24.89;20.80
30724;BME280;17473;52.286;20.930;2023-05-10T04:24:55;100857.31;;;25.63;20.46
30724;BME280;17473;52.286;20.930;2023-05-10T04:27:22;100848.75;;;26.62;19.34
30724;BME280;17473;52.286;20.930;2023-05-10T04:29:49;100856.50;;;26.78;19.14
30724;BME280;17473;52.286;20.930;2023-05-10T04:32:17;100856.25;;;27.20;18.58
30724;BME280;17473;52.286;20.930;2023-05-10T04:34:44;100855.56;;;27.76;18.35
30724;BME280;17473;52.286;20.930;2023-05-10T04:37:11;100843.84;;;28.61;17.62
30724;BME280;17473;52.286;20.930;2023-05-10T04:39:38;100849.91;;;29.22;16.73
30724;BME280;17473;52.286;20.930;2023-05-10T04:42:08;100854.25;;;28.75;17.58
30724;BME280;17473;52.286;20.930;2023-05-10T04:44:35;100851.94;;;29.88;16.58
30724;BME280;17473;52.286;20.930;2023-05-10T04:47:03;100857.41;;;30.34;15.81
30724;BME280;17473;52.286;20.930;2023-05-10T04:49:30;100848.69;;;30.68;15.93
30724;BME280;17473;52.286;20.930;2023-05-10T04:51:57;100852.63;;;31.04;15.53
30724;BME280;17473;52.286;20.930;2023-05-10T04:54:24;100843.41;;;32.05;14.69
30724;BME280;17473;52.286;20.930;2023-05-10T04:56:51;100859.47;;;31.54;15.06
30724;BME280;17473;52.286;20.930;2023-05-10T04:59:18;100851.63;;;32.78;14.50
30724;BME280;17473;52.286;20.930;2023-05-10T05:01:45;100864.06;;;32.11;14.89
30724;BME280;17473;52.286;20.930;2023-05-10T05:04:12;100847.00;;;31.69;14.67
30724;BME280;17473;52.286;20.930;2023-05-10T05:06:39;100861.81;;;31.62;14.56
30724;BME280;17473;52.286;20.930;2023-05-10T05:09:06;100853.44;;;32.05;14.50
30724;BME280;17473;52.286;20.930;2023-05-10T05:11:34;100853.09;;;31.53;14.86
30724;BME280;17473;52.286;20.930;2023-05-10T05:14:01;100851.44;;;33.34;13.71
30724;BME280;17473;52.286;20.930;2023-05-10T05:16:31;100844.97;;;32.30;14.03
30724;BME280;17473;52.286;20.930;2023-05-10T05:18:59;100848.09;;;34.27;13.26
30724;BME280;17473;52.286;20.930;2023-05-10T05:21:27;100846.09;;;34.14;13.14
30724;BME280;17473;52.286;20.930;2023-05-10T05:23:55;100850.28;;;33.72;13.46
30724;BME280;17473;52.286;20.930;2023-05-10T05:26:22;100846.47;;;32.72;14.39
30724;BME280;17473;52.286;20.930;2023-05-10T05:28:49;100853.81;;;33.74;14.02
30724;BME280;17473;52.286;20.930;2023-05-10T05:31:19;100846.84;;;34.64;12.84
30724;BME280;17473;52.286;20.930;2023-05-10T05:33:47;100850.41;;;33.19;13.50
30724;BME280;17473;52.286;20.930;2023-05-10T05:36:14;100852.34;;;35.54;12.33
30724;BME280;17473;52.286;20.930;2023-05-10T05:38:41;100852.00;;;35.73;12.09
30724;BME280;17473;52.286;20.930;2023-05-10T05:41:08;100849.38;;;35.57;12.09
30724;BME280;17473;52.286;20.930;2023-05-10T05:43:35;100846.75;;;34.66;12.76
30724;BME280;17473;52.286;20.930;2023-05-10T05:46:04;100850.06;;;35.76;12.36
30724;BME280;17473;52.286;20.930;2023-05-10T05:48:31;100848.97;;;34.59;12.78
30724;BME280;17473;52.286;20.930;2023-05-10T05:50:58;100854.97;;;34.34;12.76
30724;BME280;17473;52.286;20.930;2023-05-10T05:53:26;100856.75;;;34.82;12.86
30724;BME280;17473;52.286;20.930;2023-05-10T05:55:58;100857.84;;;35.24;12.28
30724;BME280;17473;52.286;20.930;2023-05-10T05:58:25;100850.50;;;35.82;11.98
30724;BME280;17473;52.286;20.930;2023-05-10T06:00:53;100854.28;;;34.93;12.60
30724;BME280;17473;52.286;20.930;2023-05-10T06:03:21;100859.09;;;35.49;12.54
30724;BME280;17473;52.286;20.930;2023-05-10T06:05:48;100857.94;;;35.37;12.65
30724;BME280;17473;52.286;20.930;2023-05-10T06:08:15;100856.09;;;35.81;11.91
30724;BME280;17473;52.286;20.930;2023-05-10T06:10:42;100860.53;;;35.69;12.23
30724;BME280;17473;52.286;20.930;2023-05-10T06:13:09;100862.06;;;35.30;12.21
30724;BME280;17473;52.286;20.930;2023-05-10T06:15:36;100854.88;;;35.43;12.21
30724;BME280;17473;52.286;20.930;2023-05-10T06:18:04;100853.47;;;35.94;11.97
30724;BME280;17473;52.286;20.930;2023-05-10T06:20:31;100859.41;;;36.15;11.41
30724;BME280;17473;52.286;20.930;2023-05-10T06:22:58;100858.09;;;35.93;12.15
30724;BME280;17473;52.286;20.930;2023-05-10T06:25:25;100851.78;;;35.19;12.26
30724;BME280;17473;52.286;20.930;2023-05-10T06:27:52;100862.69;;;35.78;11.63
30724;BME280;17473;52.286;20.930;2023-05-10T06:30:25;100850.97;;;35.02;12.09
30724;BME280;17473;52.286;20.930;2023-05-10T06:32:54;100840.69;;;34.75;12.42
30724;BME280;17473;52.286;20.930;2023-05-10T06:35:22;100859.03;;;33.79;12.97
30724;BME280;17473;52.286;20.930;2023-05-10T06:37:50;100864.00;;;33.21;13.27
30724;BME280;17473;52.286;20.930;2023-05-10T06:40:18;100857.34;;;33.76;13.09
30724;BME280;17473;52.286;20.930;2023-05-10T06:42:46;100854.72;;;33.75;13.08
30724;BME280;17473;52.286;20.930;2023-05-10T06:45:14;100865.72;;;31.96;14.28
30724;BME280;17473;52.286;20.930;2023-05-10T06:47:42;100849.91;;;31.64;14.90
30724;BME280;17473;52.286;20.930;2023-05-10T06:50:10;100853.25;;;32.83;13.59
30724;BME280;17473;52.286;20.930;2023-05-10T06:52:38;100844.63;;;33.26;13.39
30724;BME280;17473;52.286;20.930;2023-05-10T06:55:06;100846.81;;;33.52;13.84
30724;BME280;17473;52.286;20.930;2023-05-10T06:57:33;100844.66;;;34.86;12.94
30724;BME280;17473;52.286;20.930;2023-05-10T07:00:00;100851.34;;;33.18;13.27
30724;BME280;17473;52.286;20.930;2023-05-10T07:02:28;100846.94;;;33.83;13.17
30724;BME280;17473;52.286;20.930;2023-05-10T07:04:55;100854.97;;;32.49;14.15
30724;BME280;17473;52.286;20.930;2023-05-10T07:07:24;100858.78;;;33.16;13.75
30724;BME280;17473;52.286;20.930;2023-05-10T07:09:51;100848.22;;;32.73;13.80
30724;BME280;17473;52.286;20.930;2023-05-10T07:12:18;100852.06;;;31.96;14.17
30724;BME280;17473;52.286;20.930;2023-05-10T07:14:45;100864.72;;;31.19;14.58
30724;BME280;17473;52.286;20.930;2023-05-10T07:17:13;100849.50;;;31.13;14.53
30724;BME280;17473;52.286;20.930;2023-05-10T07:19:40;100843.72;;;31.99;13.50
30724;BME280;17473;52.286;20.930;2023-05-10T07:22:07;100851.78;;;31.02;14.29
30724;BME280;17473;52.286;20.930;2023-05-10T07:24:34;100838.34;;;30.76;14.97
30724;BME280;17473;52.286;20.930;2023-05-10T07:27:01;100840.06;;;31.60;13.78
30724;BME280;17473;52.286;20.930;2023-05-10T07:29:28;100855.72;;;28.85;15.05
30724;BME280;17473;52.286;20.930;2023-05-10T07:31:56;100851.31;;;29.33;15.66
30724;BME280;17473;52.286;20.930;2023-05-10T07:34:24;100840.66;;;28.48;16.20
30724;BME280;17473;52.286;20.930;2023-05-10T07:36:52;100852.06;;;28.86;15.71
30724;BME280;17473;52.286;20.930;2023-05-10T07:39:19;100850.56;;;27.92;16.11
30724;BME280;17473;52.286;20.930;2023-05-10T07:41:54;100844.13;;;27.02;16.58
30724;BME280;17473;52.286;20.930;2023-05-10T07:44:22;100847.53;;;27.42;16.54
30724;BME280;17473;52.286;20.930;2023-05-10T07:46:50;100852.69;;;25.70;16.58
30724;BME280;17473;52.286;20.930;2023-05-10T07:49:17;100861.63;;;26.15;17.14
30724;BME280;17473;52.286;20.930;2023-05-10T07:51:44;100844.06;;;25.93;17.15
30724;BME280;17473;52.286;20.930;2023-05-10T07:54:11;100841.13;;;26.42;16.66
30724;BME280;17473;52.286;20.930;2023-05-10T07:56:39;100846.63;;;26.39;16.93
30724;BME280;17473;52.286;20.930;2023-05-10T07:59:15;100851.25;;;25.54;17.50
30724;BME280;17473;52.286;20.930;2023-05-10T08:01:44;100847.13;;;25.76;17.68
30724;BME280;17473;52.286;20.930;2023-05-10T08:04:12;100841.78;;;24.82;17.60
30724;BME280;17473;52.286;20.930;2023-05-10T08:06:40;100849.44;;;23.95;17.67
30724;BME280;17473;52.286;20.930;2023-05-10T08:09:08;100839.03;;;24.84;17.21
30724;BME280;17473;52.286;20.930;2023-05-10T08:11:35;100859.41;;;23.88;17.89
30724;BME280;17473;52.286;20.930;2023-05-10T08:14:02;100829.75;;;23.86;18.36
30724;BME280;17473;52.286;20.930;2023-05-10T08:16:29;100847.47;;;24.06;18.52
30724;BME280;17473;52.286;20.930;2023-05-10T08:18:56;100842.16;;;24.01;18.57
30724;BME280;17473;52.286;20.930;2023-05-10T08:21:24;100826.41;;;23.70;18.41
30724;BME280;17473;52.286;20.930;2023-05-10T08:23:51;100836.72;;;24.61;17.83
30724;BME280;17473;52.286;20.930;2023-05-10T08:26:18;100824.97;;;24.65;18.02
30724;BME280;17473;52.286;20.930;2023-05-10T08:28:45;100820.19;;;24.82;17.71
30724;BME280;17473;52.286;20.930;2023-05-10T08:31:12;100825.88;;;24.64;17.63
30724;BME280;17473;52.286;20.930;2023-05-10T08:33:39;100831.22;;;25.17;17.36
30724;BME280;17473;52.286;20.930;2023-05-10T08:36:09;100822.44;;;25.92;16.76
30724;BME280;17473;52.286;20.930;2023-05-10T08:38:37;100837.00;;;25.45;17.12
30724;BME280;17473;52.286;20.930;2023-05-10T08:41:05;100837.78;;;23.92;18.09
30724;BME280;17473;52.286;20.930;2023-05-10T08:43:33;100837.09;;;23.76;18.28
30724;BME280;17473;52.286;20.930;2023-05-10T08:46:04;100827.06;;;23.13;18.95
30724;BME280;17473;52.286;20.930;2023-05-10T08:48:34;100837.72;;;22.24;19.75
30724;BME280;17473;52.286;20.930;2023-05-10T08:51:03;100842.59;;;22.86;19.86
30724;BME280;17473;52.286;20.930;2023-05-10T08:53:33;100815.38;;;23.14;19.33
30724;BME280;17473;52.286;20.930;2023-05-10T08:56:03;100826.72;;;22.57;19.30
30724;BME280;17473;52.286;20.930;2023-05-10T08:58:31;100829.41;;;22.60;19.08
30724;BME280;17473;52.286;20.930;2023-05-10T09:00:59;100817.88;;;22.39;18.89
30724;BME280;17473;52.286;20.930;2023-05-10T09:03:27;100823.47;;;22.11;19.11
30724;BME280;17473;52.286;20.930;2023-05-10T09:05:54;100832.25;;;22.41;18.47
30724;BME280;17473;52.286;20.930;2023-05-10T09:08:24;100820.91;;;21.91;19.23
30724;BME280;17473;52.286;20.930;2023-05-10T09:10:54;100821.69;;;22.12;19.24
30724;BME280;17473;52.286;20.930;2023-05-10T09:13:22;100851.00;;;22.50;19.31
30724;BME280;17473;52.286;20.930;2023-05-10T09:15:51;100822.13;;;21.17;20.44
30724;BME280;17473;52.286;20.930;2023-05-10T09:18:19;100813.03;;;21.58;20.26
30724;BME280;17473;52.286;20.930;2023-05-10T09:20:46;100783.25;;;21.99;19.81
30724;BME280;17473;52.286;20.930;2023-05-10T09:23:13;100801.25;;;21.83;20.37
30724;BME280;17473;52.286;20.930;2023-05-10T09:25:42;100806.28;;;22.31;19.80
30724;BME280;17473;52.286;20.930;2023-05-10T09:28:09;100824.41;;;22.07;19.22
30724;BME280;17473;52.286;20.930;2023-05-10T09:30:36;100807.84;;;21.00;20.11
30724;BME280;17473;52.286;20.930;2023-05-10T09:33:03;100802.41;;;21.27;20.19
30724;BME280;17473;52.286;20.930;2023-05-10T09:35:32;100796.00;;;21.60;19.84
30724;BME280;17473;52.286;20.930;2023-05-10T09:38:04;100795.31;;;21.00;20.42
30724;BME280;17473;52.286;20.930;2023-05-10T09:40:32;100812.28;;;21.13;20.34
30724;BME280;17473;52.286;20.930;2023-05-10T09:45:33;100813.25;;;20.36;21.16
30724;BME280;17473;52.286;20.930;2023-05-10T09:48:04;100801.63;;;20.59;21.24
30724;BME280;17473;52.286;20.930;2023-05-10T09:50:31;100818.59;;;20.97;21.01
30724;BME280;17473;52.286;20.930;2023-05-10T09:53:01;100801.50;;;21.33;20.90
30724;BME280;17473;52.286;20.930;2023-05-10T09:55:43;100799.63;;;21.46;21.10
30724;BME280;17473;52.286;20.930;2023-05-10T09:58:16;100800.63;;;21.23;21.70
30724;BME280;17473;52.286;20.930;2023-05-10T10:00:45;100785.91;;;22.03;21.01
30724;BME280;17473;52.286;20.930;2023-05-10T10:03:20;100805.03;;;21.35;21.10
30724;BME280;17473;52.286;20.930;2023-05-10T10:05:48;100803.34;;;21.05;21.15
30724;BME280;17473;52.286;20.930;2023-05-10T10:08:17;100791.53;;;21.49;20.90
30724;BME280;17473;52.286;20.930;2023-05-10T10:10:44;100829.34;;;20.53;22.18
30724;BME280;17473;52.286;20.930;2023-05-10T10:13:13;100781.94;;;20.82;21.61
30724;BME280;17473;52.286;20.930;2023-05-10T10:15:42;100789.09;;;20.58;22.27
30724;BME280;17473;52.286;20.930;2023-05-10T10:18:14;100783.72;;;20.87;21.58
30724;BME280;17473;52.286;20.930;2023-05-10T10:20:42;100793.47;;;21.13;21.36
30724;BME280;17473;52.286;20.930;2023-05-10T10:23:09;100784.63;;;20.69;21.32
30724;BME280;17473;52.286;20.930;2023-05-10T10:25:38;100773.03;;;20.42;21.28
30724;BME280;17473;52.286;20.930;2023-05-10T10:28:22;100768.56;;;19.93;22.65
30724;BME280;17473;52.286;20.930;2023-05-10T10:30:55;100766.69;;;19.64;22.65
30724;BME280;17473;52.286;20.930;2023-05-10T10:36:29;100779.28;;;20.44;21.73
30724;BME280;17473;52.286;20.930;2023-05-10T10:39:01;100765.91;;;20.16;21.96
30724;BME280;17473;52.286;20.930;2023-05-10T10:41:34;100780.16;;;20.03;22.50
30724;BME280;17473;52.286;20.930;2023-05-10T10:44:24;100761.41;;;20.42;21.84
30724;BME280;17473;52.286;20.930;2023-05-10T10:49:50;100755.16;;;20.27;21.82
30724;BME280;17473;52.286;20.930;2023-05-10T10:52:26;100753.38;;;20.22;21.39
30724;BME280;17473;52.286;20.930;2023-05-10T10:57:50;100746.22;;;20.47;21.99
30724;BME280;17473;52.286;20.930;2023-05-10T11:00:38;100751.59;;;20.16;22.02
30724;BME280;17473;52.286;20.930;2023-05-10T11:03:12;100750.41;;;19.10;22.98
30724;BME280;17473;52.286;20.930;2023-05-10T11:05:47;100748.63;;;19.00;23.06
30724;BME280;17473;52.286;20.930;2023-05-10T11:13:42;100751.41;;;19.34;22.96
30724;BME280;17473;52.286;20.930;2023-05-10T11:16:27;100738.66;;;18.83;23.06
30724;BME280;17473;52.286;20.930;2023-05-10T11:19:01;100733.34;;;18.85;22.63
30724;BME280;17473;52.286;20.930;2023-05-10T11:21:31;100742.09;;;18.62;22.87
30724;BME280;17473;52.286;20.930;2023-05-10T11:24:01;100751.25;;;18.97;23.16
30724;BME280;17473;52.286;20.930;2023-05-10T11:26:35;100739.66;;;18.95;23.10
30724;BME280;17473;52.286;20.930;2023-05-10T11:29:02;100729.78;;;18.86;23.15
30724;BME280;17473;52.286;20.930;2023-05-10T11:31:31;100732.44;;;18.89;23.43
30724;BME280;17473;52.286;20.930;2023-05-10T11:33:59;100727.97;;;18.80;23.11
30724;BME280;17473;52.286;20.930;2023-05-10T11:36:34;100741.19;;;18.55;23.32
30724;BME280;17473;52.286;20.930;2023-05-10T11:39:04;100716.31;;;18.75;23.63
30724;BME280;17473;52.286;20.930;2023-05-10T11:41:32;100727.91;;;18.72;23.40
30724;BME280;17473;52.286;20.930;2023-05-10T11:43:59;100725.22;;;18.65;23.83
30724;BME280;17473;52.286;20.930;2023-05-10T11:46:27;100739.50;;;18.74;23.84
30724;BME280;17473;52.286;20.930;2023-05-10T11:49:00;100734.03;;;18.50;23.84
30724;BME280;17473;52.286;20.930;2023-05-10T11:51:28;100729.63;;;18.59;23.37
30724;BME280;17473;52.286;20.930;2023-05-10T11:53:56;100773.31;;;18.61;23.43
30724;BME280;17473;52.286;20.930;2023-05-10T11:56:24;100729.38;;;18.27;24.12
30724;BME280;17473;52.286;20.930;2023-05-10T11:58:56;100715.31;;;18.51;24.12
30724;BME280;17473;52.286;20.930;2023-05-10T12:01:25;100721.66;;;18.70;24.74
30724;BME280;17473;52.286;20.930;2023-05-10T12:03:55;100722.50;;;18.60;24.73
30724;BME280;17473;52.286;20.930;2023-05-10T12:06:32;100757.16;;;18.49;24.44
30724;BME280;17473;52.286;20.930;2023-05-10T12:09:07;100714.34;;;18.37;24.66
30724;BME280;17473;52.286;20.930;2023-05-10T12:11:40;100718.69;;;18.27;24.87
30724;BME280;17473;52.286;20.930;2023-05-10T12:14:10;100707.28;;;18.50;24.45
30724;BME280;17473;52.286;20.930;2023-05-10T12:16:37;100704.59;;;18.46;24.30
30724;BME280;17473;52.286;20.930;2023-05-10T12:19:05;100727.91;;;18.71;24.25
30724;BME280;17473;52.286;20.930;2023-05-10T12:21:32;100724.25;;;18.61;24.65
30724;BME280;17473;52.286;20.930;2023-05-10T12:24:02;100720.72;;;18.60;24.69
30724;BME280;17473;52.286;20.930;2023-05-10T12:26:30;100727.91;;;18.72;24.62
30724;BME280;17473;52.286;20.930;2023-05-10T12:29:18;100722.47;;;18.55;23.95
30724;BME280;17473;52.286;20.930;2023-05-10T12:31:59;100720.75;;;18.65;24.25
30724;BME280;17473;52.286;20.930;2023-05-10T12:34:32;100715.44;;;18.73;24.47
30724;BME280;17473;52.286;20.930;2023-05-10T12:37:00;100721.88;;;19.07;24.38
30724;BME280;17473;52.286;20.930;2023-05-10T12:39:39;100716.22;;;18.55;25.09
30724;BME280;17473;52.286;20.930;2023-05-10T12:42:07;100710.84;;;18.50;25.21
30724;BME280;17473;52.286;20.930;2023-05-10T12:44:34;100731.34;;;18.50;25.31
30724;BME280;17473;52.286;20.930;2023-05-10T12:47:01;100735.78;;;18.48;25.37
30724;BME280;17473;52.286;20.930;2023-05-10T12:49:28;100700.03;;;18.30;24.99
30724;BME280;17473;52.286;20.930;2023-05-10T12:51:55;100729.47;;;18.35;25.24
30724;BME280;17473;52.286;20.930;2023-05-10T12:54:22;100700.97;;;18.37;25.40
30724;BME280;17473;52.286;20.930;2023-05-10T12:56:49;100703.59;;;18.35;24.76
30724;BME280;17473;52.286;20.930;2023-05-10T12:59:16;100718.03;;;18.59;24.52
30724;BME280;17473;52.286;20.930;2023-05-10T13:01:43;100704.59;;;18.45;24.52
30724;BME280;17473;52.286;20.930;2023-05-10T13:04:10;100690.22;;;18.27;25.17
30724;BME280;17473;52.286;20.930;2023-05-10T13:06:38;100699.41;;;18.79;24.69
30724;BME280;17473;52.286;20.930;2023-05-10T13:09:05;100694.94;;;18.73;24.92
30724;BME280;17473;52.286;20.930;2023-05-10T13:11:32;100702.94;;;18.69;25.15
30724;BME280;17473;52.286;20.930;2023-05-10T13:13:59;100709.97;;;18.51;24.86
30724;BME280;17473;52.286;20.930;2023-05-10T13:16:27;100701.88;;;18.43;25.03
30724;BME280;17473;52.286;20.930;2023-05-10T13:18:54;100694.88;;;18.66;24.87
30724;BME280;17473;52.286;20.930;2023-05-10T13:21:22;100682.47;;;18.83;24.94
30724;BME280;17473;52.286;20.930;2023-05-10T13:23:51;100680.69;;;18.73;25.15